sensor_id;sensor_type;location;lat;lon;timestamp;P1;durP1;ratioP1;P2;durP2;ratioP2
37753;SDS011;23596;52.520;13.464;2023-05-07T00:00:25;31.50;;;18.30;;
37753;SDS011;23596;52.520;13.464;2023-05-07T00:02:51;33.23;;;18.37;;
37753;SDS011;23596;52.520;13.464;2023-05-07T00:05:16;30.83;;;18.00;;
37753;SDS011;23596;52.520;13.464;2023-05-07T00:07:42;30.63;;;18.73;;
37753;SDS011;23596;52.520;13.464;2023-05-07T00:10:08;37.77;;;18.77;;
37753;SDS011;23596;52.520;13.464;2023-05-07T00:12:47;32.33;;;17.40;;
37753;SDS011;23596;52.520;13.464;2023-05-07T00:15:13;31.50;;;17.73;;
37753;SDS011;23596;52.520;13.464;2023-05-07T00:17:38;34.50;;;17.97;;
37753;SDS011;23596;52.520;13.464;2023-05-07T00:20:04;27.48;;;15.98;;
37753;SDS011;23596;52.520;13.464;2023-05-07T00:22:30;28.88;;;16.77;;
37753;SDS011;23596;52.520;13.464;2023-05-07T00:24:57;27.67;;;16.33;;
37753;SDS011;23596;52.520;13.464;2023-05-07T00:27:24;28.10;;;16.05;;
37753;SDS011;23596;52.520;13.464;2023-05-07T00:29:50;31.80;;;17.20;;
37753;SDS011;23596;52.520;13.464;2023-05-07T00:32:15;29.57;;;16.17;;
37753;SDS011;23596;52.520;13.464;2023-05-07T00:34:41;30.53;;;16.07;;
37753;SDS011;23596;52.520;13.464;2023-05-07T00:37:07;25.65;;;15.55;;
37753;SDS011;23596;52.520;13.464;2023-05-07T00:39:34;26.20;;;15.57;;
37753;SDS011;23596;52.520;13.464;2023-05-07T00:42:00;30.42;;;16.52;;
37753;SDS011;23596;52.520;13.464;2023-05-07T00:44:26;31.07;;;16.33;;
37753;SDS011;23596;52.520;13.464;2023-05-07T00:46:51;32.90;;;16.60;;
37753;SDS011;23596;52.520;13.464;2023-05-07T00:49:18;29.08;;;16.23;;
37753;SDS011;23596;52.520;13.464;2023-05-07T00:51:45;30.48;;;15.77;;
37753;SDS011;23596;52.520;13.464;2023-05-07T00:54:11;33.88;;;16.52;;
37753;SDS011;23596;52.520;13.464;2023-05-07T00:59:04;27.90;;;16.52;;
37753;SDS011;23596;52.520;13.464;2023-05-07T01:01:31;30.38;;;16.77;;
37753;SDS011;23596;52.520;13.464;2023-05-07T01:03:57;25.90;;;15.77;;
37753;SDS011;23596;52.520;13.464;2023-05-07T01:06:23;32.73;;;17.17;;
37753;SDS011;23596;52.520;13.464;2023-05-07T01:08:52;28.23;;;16.33;;
37753;SDS011;23596;52.520;13.464;2023-05-07T01:11:21;33.08;;;16.42;;
37753;SDS011;23596;52.520;13.464;2023-05-07T01:13:47;33.92;;;16.20;;
37753;SDS011;23596;52.520;13.464;2023-05-07T01:16:15;29.25;;;17.48;;
37753;SDS011;23596;52.520;13.464;2023-05-07T01:18:41;28.23;;;16.50;;
37753;SDS011;23596;52.520;13.464;2023-05-07T01:21:06;27.20;;;16.10;;
37753;SDS011;23596;52.520;13.464;2023-05-07T01:23:35;29.00;;;16.83;;
37753;SDS011;23596;52.520;13.464;2023-05-07T01:26:01;33.50;;;16.57;;
37753;SDS011;23596;52.520;13.464;2023-05-07T01:28:27;27.73;;;15.33;;
37753;SDS011;23596;52.520;13.464;2023-05-07T01:30:53;27.03;;;15.20;;
37753;SDS011;23596;52.520;13.464;2023-05-07T01:33:26;28.67;;;15.13;;
37753;SDS011;23596;52.520;13.464;2023-05-07T01:35:54;31.38;;;15.30;;
37753;SDS011;23596;52.520;13.464;2023-05-07T01:38:20;30.40;;;15.47;;
37753;SDS011;23596;52.520;13.464;2023-05-07T01:40:47;32.17;;;16.58;;
37753;SDS011;23596;52.520;13.464;2023-05-07T01:43:13;28.33;;;16.10;;
37753;SDS011;23596;52.520;13.464;2023-05-07T01:45:39;34.13;;;15.07;;
37753;SDS011;23596;52.520;13.464;2023-05-07T01:50:32;31.08;;;15.50;;
37753;SDS011;23596;52.520;13.464;2023-05-07T01:52:58;24.35;;;14.93;;
37753;SDS011;23596;52.520;13.464;2023-05-07T01:55:24;31.10;;;15.23;;
37753;SDS011;23596;52.520;13.464;2023-05-07T01:57:50;25.55;;;15.02;;
37753;SDS011;23596;52.520;13.464;2023-05-07T02:00:15;26.07;;;15.67;;
37753;SDS011;23596;52.520;13.464;2023-05-07T02:02:42;30.92;;;15.32;;
37753;SDS011;23596;52.520;13.464;2023-05-07T02:05:08;24.53;;;14.43;;
37753;SDS011;23596;52.520;13.464;2023-05-07T02:07:33;37.37;;;16.13;;
37753;SDS011;23596;52.520;13.464;2023-05-07T02:09:59;22.00;;;14.83;;
37753;SDS011;23596;52.520;13.464;2023-05-07T02:12:25;29.90;;;15.57;;
37753;SDS011;23596;52.520;13.464;2023-05-07T02:14:50;25.37;;;14.67;;
37753;SDS011;23596;52.520;13.464;2023-05-07T02:17:16;30.80;;;15.80;;
37753;SDS011;23596;52.520;13.464;2023-05-07T02:19:41;29.83;;;16.40;;
37753;SDS011;23596;52.520;13.464;2023-05-07T02:22:07;27.03;;;16.57;;
37753;SDS011;23596;52.520;13.464;2023-05-07T02:26:59;31.13;;;15.77;;
37753;SDS011;23596;52.520;13.464;2023-05-07T02:29:25;32.47;;;16.30;;
37753;SDS011;23596;52.520;13.464;2023-05-07T02:31:51;25.43;;;15.17;;
37753;SDS011;23596;52.520;13.464;2023-05-07T02:34:18;25.80;;;15.10;;
37753;SDS011;23596;52.520;13.464;2023-05-07T02:36:44;28.52;;;16.20;;
37753;SDS011;23596;52.520;13.464;2023-05-07T02:39:10;27.65;;;16.58;;
37753;SDS011;23596;52.520;13.464;2023-05-07T02:41:40;33.88;;;15.30;;
37753;SDS011;23596;52.520;13.464;2023-05-07T02:44:06;31.07;;;16.13;;
37753;SDS011;23596;52.520;13.464;2023-05-07T02:46:31;29.87;;;16.10;;
37753;SDS011;23596;52.520;13.464;2023-05-07T02:48:57;32.60;;;14.40;;
37753;SDS011;23596;52.520;13.464;2023-05-07T02:51:23;24.40;;;13.93;;
37753;SDS011;23596;52.520;13.464;2023-05-07T02:53:48;26.43;;;15.00;;
37753;SDS011;23596;52.520;13.464;2023-05-07T02:56:14;27.05;;;14.18;;
37753;SDS011;23596;52.520;13.464;2023-05-07T02:58:40;26.70;;;14.95;;
37753;SDS011;23596;52.520;13.464;2023-05-07T03:01:07;28.67;;;14.88;;
37753;SDS011;23596;52.520;13.464;2023-05-07T03:03:32;24.10;;;15.03;;
37753;SDS011;23596;52.520;13.464;2023-05-07T03:05:58;26.02;;;15.10;;
37753;SDS011;23596;52.520;13.464;2023-05-07T03:08:24;27.07;;;14.10;;
37753;SDS011;23596;52.520;13.464;2023-05-07T03:10:50;33.07;;;15.17;;
37753;SDS011;23596;52.520;13.464;2023-05-07T03:13:16;23.77;;;14.70;;
37753;SDS011;23596;52.520;13.464;2023-05-07T03:15:42;24.40;;;14.50;;
37753;SDS011;23596;52.520;13.464;2023-05-07T03:18:07;25.27;;;14.73;;
37753;SDS011;23596;52.520;13.464;2023-05-07T03:20:33;27.42;;;15.32;;
37753;SDS011;23596;52.520;13.464;2023-05-07T03:22:59;29.10;;;14.73;;
37753;SDS011;23596;52.520;13.464;2023-05-07T03:25:24;25.37;;;14.40;;
37753;SDS011;23596;52.520;13.464;2023-05-07T03:27:50;28.63;;;15.27;;
37753;SDS011;23596;52.520;13.464;2023-05-07T03:30:16;24.57;;;14.20;;
37753;SDS011;23596;52.520;13.464;2023-05-07T03:32:42;31.07;;;14.77;;
37753;SDS011;23596;52.520;13.464;2023-05-07T03:35:07;25.53;;;14.13;;
37753;SDS011;23596;52.520;13.464;2023-05-07T03:37:33;24.03;;;14.43;;
37753;SDS011;23596;52.520;13.464;2023-05-07T03:39:59;26.73;;;15.80;;
37753;SDS011;23596;52.520;13.464;2023-05-07T03:42:24;25.10;;;14.87;;
37753;SDS011;23596;52.520;13.464;2023-05-07T03:44:50;26.47;;;15.47;;
37753;SDS011;23596;52.520;13.464;2023-05-07T03:47:15;33.37;;;15.90;;
37753;SDS011;23596;52.520;13.464;2023-05-07T03:49:41;24.73;;;15.40;;
37753;SDS011;23596;52.520;13.464;2023-05-07T03:52:07;24.47;;;13.63;;
37753;SDS011;23596;52.520;13.464;2023-05-07T03:54:32;25.07;;;14.60;;
37753;SDS011;23596;52.520;13.464;2023-05-07T03:56:58;26.33;;;16.17;;
37753;SDS011;23596;52.520;13.464;2023-05-07T03:59:24;27.63;;;15.50;;
37753;SDS011;23596;52.520;13.464;2023-05-07T04:01:49;28.45;;;14.85;;
37753;SDS011;23596;52.520;13.464;2023-05-07T04:04:15;28.00;;;14.23;;
37753;SDS011;23596;52.520;13.464;2023-05-07T04:06:41;22.52;;;13.00;;
37753;SDS011;23596;52.520;13.464;2023-05-07T04:09:07;25.47;;;14.00;;
37753;SDS011;23596;52.520;13.464;2023-05-07T04:11:33;31.07;;;14.63;;
37753;SDS011;23596;52.520;13.464;2023-05-07T04:13:59;29.77;;;14.85;;
37753;SDS011;23596;52.520;13.464;2023-05-07T04:16:25;24.73;;;14.13;;
37753;SDS011;23596;52.520;13.464;2023-05-07T04:18:51;32.27;;;14.33;;
37753;SDS011;23596;52.520;13.464;2023-05-07T04:21:16;30.00;;;13.20;;
37753;SDS011;23596;52.520;13.464;2023-05-07T04:26:08;24.25;;;13.20;;
37753;SDS011;23596;52.520;13.464;2023-05-07T04:28:34;23.93;;;13.00;;
37753;SDS011;23596;52.520;13.464;2023-05-07T04:31:00;25.33;;;13.43;;
37753;SDS011;23596;52.520;13.464;2023-05-07T04:33:26;23.50;;;12.67;;
37753;SDS011;23596;52.520;13.464;2023-05-07T04:35:51;19.90;;;12.27;;
37753;SDS011;23596;52.520;13.464;2023-05-07T04:38:17;24.30;;;11.80;;
37753;SDS011;23596;52.520;13.464;2023-05-07T04:40:43;20.83;;;12.40;;
37753;SDS011;23596;52.520;13.464;2023-05-07T04:43:09;25.23;;;11.80;;
37753;SDS011;23596;52.520;13.464;2023-05-07T04:45:36;20.42;;;12.30;;
37753;SDS011;23596;52.520;13.464;2023-05-07T04:48:02;19.30;;;11.75;;
37753;SDS011;23596;52.520;13.464;2023-05-07T04:50:27;19.97;;;11.80;;
37753;SDS011;23596;52.520;13.464;2023-05-07T04:52:53;21.63;;;11.03;;
37753;SDS011;23596;52.520;13.464;2023-05-07T04:55:19;18.13;;;9.60;;
37753;SDS011;23596;52.520;13.464;2023-05-07T04:57:44;20.40;;;11.27;;
37753;SDS011;23596;52.520;13.464;2023-05-07T05:00:10;17.30;;;10.27;;
37753;SDS011;23596;52.520;13.464;2023-05-07T05:02:39;24.95;;;10.88;;
37753;SDS011;23596;52.520;13.464;2023-05-07T05:05:05;16.40;;;10.70;;
37753;SDS011;23596;52.520;13.464;2023-05-07T05:07:32;18.50;;;10.98;;
37753;SDS011;23596;52.520;13.464;2023-05-07T05:09:57;15.70;;;9.70;;
37753;SDS011;23596;52.520;13.464;2023-05-07T05:12:23;16.77;;;10.33;;
37753;SDS011;23596;52.520;13.464;2023-05-07T05:14:49;16.50;;;10.17;;
37753;SDS011;23596;52.520;13.464;2023-05-07T05:17:14;17.70;;;10.53;;
37753;SDS011;23596;52.520;13.464;2023-05-07T05:19:40;19.70;;;10.70;;
37753;SDS011;23596;52.520;13.464;2023-05-07T05:22:05;17.73;;;10.50;;
37753;SDS011;23596;52.520;13.464;2023-05-07T05:24:31;21.50;;;10.83;;
37753;SDS011;23596;52.520;13.464;2023-05-07T05:26:57;21.40;;;11.43;;
37753;SDS011;23596;52.520;13.464;2023-05-07T05:29:24;20.38;;;11.63;;
37753;SDS011;23596;52.520;13.464;2023-05-07T05:31:50;18.97;;;11.30;;
37753;SDS011;23596;52.520;13.464;2023-05-07T05:34:15;23.40;;;11.70;;
37753;SDS011;23596;52.520;13.464;2023-05-07T05:36:42;17.95;;;10.68;;
37753;SDS011;23596;52.520;13.464;2023-05-07T05:39:08;18.08;;;10.60;;
37753;SDS011;23596;52.520;13.464;2023-05-07T05:41:34;25.00;;;11.93;;
37753;SDS011;23596;52.520;13.464;2023-05-07T05:43:59;20.13;;;11.17;;
37753;SDS011;23596;52.520;13.464;2023-05-07T05:46:25;19.63;;;11.40;;
37753;SDS011;23596;52.520;13.464;2023-05-07T05:48:50;29.02;;;10.85;;
37753;SDS011;23596;52.520;13.464;2023-05-07T05:51:16;20.83;;;11.37;;
37753;SDS011;23596;52.520;13.464;2023-05-07T05:53:42;22.70;;;11.10;;
37753;SDS011;23596;52.520;13.464;2023-05-07T05:56:07;22.23;;;11.27;;
37753;SDS011;23596;52.520;13.464;2023-05-07T05:58:33;30.77;;;11.47;;
37753;SDS011;23596;52.520;13.464;2023-05-07T06:00:59;17.98;;;10.20;;
37753;SDS011;23596;52.520;13.464;2023-05-07T06:03:25;20.93;;;10.30;;
37753;SDS011;23596;52.520;13.464;2023-05-07T06:05:51;22.10;;;10.55;;
37753;SDS011;23596;52.520;13.464;2023-05-07T06:08:16;24.17;;;11.17;;
37753;SDS011;23596;52.520;13.464;2023-05-07T06:13:09;22.88;;;9.95;;
37753;SDS011;23596;52.520;13.464;2023-05-07T06:15:34;18.20;;;10.33;;
37753;SDS011;23596;52.520;13.464;2023-05-07T06:18:00;20.27;;;10.43;;
37753;SDS011;23596;52.520;13.464;2023-05-07T06:20:25;25.67;;;10.17;;
37753;SDS011;23596;52.520;13.464;2023-05-07T06:22:51;19.10;;;10.13;;
37753;SDS011;23596;52.520;13.464;2023-05-07T06:25:17;20.63;;;9.47;;
37753;SDS011;23596;52.520;13.464;2023-05-07T06:27:42;16.67;;;9.80;;
37753;SDS011;23596;52.520;13.464;2023-05-07T06:30:08;18.60;;;10.10;;
37753;SDS011;23596;52.520;13.464;2023-05-07T06:32:34;18.07;;;9.17;;
37753;SDS011;23596;52.520;13.464;2023-05-07T06:34:59;13.57;;;8.77;;
37753;SDS011;23596;52.520;13.464;2023-05-07T06:37:25;17.43;;;9.03;;
37753;SDS011;23596;52.520;13.464;2023-05-07T06:39:51;15.15;;;8.77;;
37753;SDS011;23596;52.520;13.464;2023-05-07T06:42:16;23.20;;;9.17;;
37753;SDS011;23596;52.520;13.464;2023-05-07T06:44:42;13.53;;;8.33;;
37753;SDS011;23596;52.520;13.464;2023-05-07T06:47:08;19.70;;;9.05;;
37753;SDS011;23596;52.520;13.464;2023-05-07T06:49:33;22.60;;;8.60;;
37753;SDS011;23596;52.520;13.464;2023-05-07T06:51:59;17.27;;;8.20;;
37753;SDS011;23596;52.520;13.464;2023-05-07T06:54:25;18.13;;;8.50;;
37753;SDS011;23596;52.520;13.464;2023-05-07T06:56:50;19.37;;;8.03;;
37753;SDS011;23596;52.520;13.464;2023-05-07T06:59:16;14.60;;;8.27;;
37753;SDS011;23596;52.520;13.464;2023-05-07T07:01:41;14.07;;;7.60;;
37753;SDS011;23596;52.520;13.464;2023-05-07T07:04:07;15.93;;;7.77;;
37753;SDS011;23596;52.520;13.464;2023-05-07T07:06:33;16.10;;;7.78;;
37753;SDS011;23596;52.520;13.464;2023-05-07T07:08:59;15.07;;;7.67;;
37753;SDS011;23596;52.520;13.464;2023-05-07T07:11:25;11.52;;;7.05;;
37753;SDS011;23596;52.520;13.464;2023-05-07T07:13:51;13.97;;;7.47;;
37753;SDS011;23596;52.520;13.464;2023-05-07T07:16:19;12.38;;;7.45;;
37753;SDS011;23596;52.520;13.464;2023-05-07T07:18:45;13.05;;;7.13;;
37753;SDS011;23596;52.520;13.464;2023-05-07T07:21:11;12.13;;;6.40;;
37753;SDS011;23596;52.520;13.464;2023-05-07T07:23:36;14.43;;;6.63;;
37753;SDS011;23596;52.520;13.464;2023-05-07T07:26:02;14.25;;;6.88;;
37753;SDS011;23596;52.520;13.464;2023-05-07T07:28:28;14.45;;;6.25;;
37753;SDS011;23596;52.520;13.464;2023-05-07T07:30:53;15.10;;;6.30;;
37753;SDS011;23596;52.520;13.464;2023-05-07T07:33:19;9.47;;;5.87;;
37753;SDS011;23596;52.520;13.464;2023-05-07T07:35:45;11.65;;;6.35;;
37753;SDS011;23596;52.520;13.464;2023-05-07T07:38:10;11.77;;;5.87;;
37753;SDS011;23596;52.520;13.464;2023-05-07T07:40:36;8.43;;;5.03;;
37753;SDS011;23596;52.520;13.464;2023-05-07T07:43:02;13.70;;;5.70;;
37753;SDS011;23596;52.520;13.464;2023-05-07T07:45:27;10.60;;;6.10;;
37753;SDS011;23596;52.520;13.464;2023-05-07T07:47:54;13.70;;;5.50;;
37753;SDS011;23596;52.520;13.464;2023-05-07T07:50:19;8.65;;;5.05;;
37753;SDS011;23596;52.520;13.464;2023-05-07T07:52:45;11.40;;;6.00;;
37753;SDS011;23596;52.520;13.464;2023-05-07T07:55:11;13.85;;;5.53;;
37753;SDS011;23596;52.520;13.464;2023-05-07T07:57:37;11.57;;;5.13;;
37753;SDS011;23596;52.520;13.464;2023-05-07T08:00:02;10.40;;;5.73;;
37753;SDS011;23596;52.520;13.464;2023-05-07T08:02:29;9.77;;;4.70;;
37753;SDS011;23596;52.520;13.464;2023-05-07T08:04:54;10.57;;;4.93;;
37753;SDS011;23596;52.520;13.464;2023-05-07T08:07:20;8.30;;;4.45;;
37753;SDS011;23596;52.520;13.464;2023-05-07T08:09:47;8.88;;;4.55;;
37753;SDS011;23596;52.520;13.464;2023-05-07T08:12:13;11.70;;;4.73;;
37753;SDS011;23596;52.520;13.464;2023-05-07T08:14:39;8.00;;;4.70;;
37753;SDS011;23596;52.520;13.464;2023-05-07T08:17:05;10.30;;;4.33;;
37753;SDS011;23596;52.520;13.464;2023-05-07T08:19:31;9.90;;;4.60;;
37753;SDS011;23596;52.520;13.464;2023-05-07T08:21:59;8.05;;;4.47;;
37753;SDS011;23596;52.520;13.464;2023-05-07T08:24:25;9.30;;;4.00;;
37753;SDS011;23596;52.520;13.464;2023-05-07T08:26:50;6.23;;;4.13;;
37753;SDS011;23596;52.520;13.464;2023-05-07T08:29:16;11.20;;;4.33;;
37753;SDS011;23596;52.520;13.464;2023-05-07T08:31:42;12.17;;;4.20;;
37753;SDS011;23596;52.520;13.464;2023-05-07T08:34:07;8.80;;;4.30;;
37753;SDS011;23596;52.520;13.464;2023-05-07T08:36:33;7.60;;;3.80;;
37753;SDS011;23596;52.520;13.464;2023-05-07T08:38:59;9.90;;;3.90;;
37753;SDS011;23596;52.520;13.464;2023-05-07T08:41:25;10.00;;;4.90;;
37753;SDS011;23596;52.520;13.464;2023-05-07T08:43:50;8.85;;;4.45;;
37753;SDS011;23596;52.520;13.464;2023-05-07T08:46:17;8.13;;;3.70;;
37753;SDS011;23596;52.520;13.464;2023-05-07T08:48:44;6.20;;;3.40;;
37753;SDS011;23596;52.520;13.464;2023-05-07T08:51:17;7.60;;;3.50;;
37753;SDS011;23596;52.520;13.464;2023-05-07T08:53:44;10.07;;;4.30;;
37753;SDS011;23596;52.520;13.464;2023-05-07T08:56:10;12.38;;;3.67;;
37753;SDS011;23596;52.520;13.464;2023-05-07T08:58:36;6.65;;;3.85;;
37753;SDS011;23596;52.520;13.464;2023-05-07T09:01:03;9.82;;;4.78;;
37753;SDS011;23596;52.520;13.464;2023-05-07T09:03:37;6.50;;;3.70;;
37753;SDS011;23596;52.520;13.464;2023-05-07T09:06:04;10.45;;;3.75;;
37753;SDS011;23596;52.520;13.464;2023-05-07T09:08:30;15.90;;;4.33;;
37753;SDS011;23596;52.520;13.464;2023-05-07T09:10:58;8.85;;;3.70;;
37753;SDS011;23596;52.520;13.464;2023-05-07T09:13:24;8.07;;;4.10;;
37753;SDS011;23596;52.520;13.464;2023-05-07T09:15:50;6.33;;;3.57;;
37753;SDS011;23596;52.520;13.464;2023-05-07T09:18:15;13.23;;;3.50;;
37753;SDS011;23596;52.520;13.464;2023-05-07T09:20:41;12.73;;;3.70;;
37753;SDS011;23596;52.520;13.464;2023-05-07T09:23:07;6.77;;;3.73;;
37753;SDS011;23596;52.520;13.464;2023-05-07T09:25:34;7.88;;;4.30;;
37753;SDS011;23596;52.520;13.464;2023-05-07T09:28:01;7.28;;;3.65;;
37753;SDS011;23596;52.520;13.464;2023-05-07T09:30:31;7.28;;;3.80;;
37753;SDS011;23596;52.520;13.464;2023-05-07T09:33:00;7.40;;;3.58;;
37753;SDS011;23596;52.520;13.464;2023-05-07T09:35:27;8.40;;;3.92;;
37753;SDS011;23596;52.520;13.464;2023-05-07T09:37:53;5.43;;;3.58;;
37753;SDS011;23596;52.520;13.464;2023-05-07T09:40:27;7.22;;;3.83;;
37753;SDS011;23596;52.520;13.464;2023-05-07T09:42:54;7.85;;;3.83;;
37753;SDS011;23596;52.520;13.464;2023-05-07T09:45:27;7.30;;;3.63;;
37753;SDS011;23596;52.520;13.464;2023-05-07T09:47:57;8.20;;;3.40;;
37753;SDS011;23596;52.520;13.464;2023-05-07T09:50:27;5.10;;;2.95;;
37753;SDS011;23596;52.520;13.464;2023-05-07T09:52:55;9.80;;;2.80;;
37753;SDS011;23596;52.520;13.464;2023-05-07T09:55:22;4.07;;;2.63;;
37753;SDS011;23596;52.520;13.464;2023-05-07T09:57:51;7.47;;;2.88;;
37753;SDS011;23596;52.520;13.464;2023-05-07T10:00:18;3.60;;;2.28;;
37753;SDS011;23596;52.520;13.464;2023-05-07T10:02:49;5.00;;;3.10;;
37753;SDS011;23596;52.520;13.464;2023-05-07T10:05:20;8.00;;;2.42;;
37753;SDS011;23596;52.520;13.464;2023-05-07T10:07:47;7.75;;;2.33;;
37753;SDS011;23596;52.520;13.464;2023-05-07T10:10:14;8.88;;;2.55;;
37753;SDS011;23596;52.520;13.464;2023-05-07T10:12:40;5.00;;;2.38;;
37753;SDS011;23596;52.520;13.464;2023-05-07T10:15:07;3.33;;;1.93;;
37753;SDS011;23596;52.520;13.464;2023-05-07T10:17:37;7.30;;;2.28;;
37753;SDS011;23596;52.520;13.464;2023-05-07T10:20:04;6.38;;;1.88;;
37753;SDS011;23596;52.520;13.464;2023-05-07T10:22:38;5.28;;;2.40;;
37753;SDS011;23596;52.520;13.464;2023-05-07T10:25:15;5.03;;;2.47;;
37753;SDS011;23596;52.520;13.464;2023-05-07T10:27:46;4.85;;;1.95;;
37753;SDS011;23596;52.520;13.464;2023-05-07T10:33:01;5.00;;;1.88;;
37753;SDS011;23596;52.520;13.464;2023-05-07T10:35:31;7.00;;;1.98;;
37753;SDS011;23596;52.520;13.464;2023-05-07T10:38:02;5.10;;;2.30;;
37753;SDS011;23596;52.520;13.464;2023-05-07T10:42:59;2.67;;;1.73;;
37753;SDS011;23596;52.520;13.464;2023-05-07T10:45:26;4.05;;;2.08;;
37753;SDS011;23596;52.520;13.464;2023-05-07T10:48:05;4.53;;;2.25;;
37753;SDS011;23596;52.520;13.464;2023-05-07T10:51:17;5.82;;;2.20;;
37753;SDS011;23596;52.520;13.464;2023-05-07T10:53:44;3.60;;;1.85;;
37753;SDS011;23596;52.520;13.464;2023-05-07T10:58:45;3.90;;;2.17;;
37753;SDS011;23596;52.520;13.464;2023-05-07T11:01:10;4.30;;;1.80;;
37753;SDS011;23596;52.520;13.464;2023-05-07T11:04:12;7.97;;;2.22;;
37753;SDS011;23596;52.520;13.464;2023-05-07T11:06:39;5.15;;;2.28;;
37753;SDS011;23596;52.520;13.464;2023-05-07T11:09:05;7.78;;;3.10;;
37753;SDS011;23596;52.520;13.464;2023-05-07T11:11:44;2.73;;;2.03;;
37753;SDS011;23596;52.520;13.464;2023-05-07T11:17:07;4.05;;;1.92;;
37753;SDS011;23596;52.520;13.464;2023-05-07T11:19:53;6.28;;;2.80;;
37753;SDS011;23596;52.520;13.464;2023-05-07T11:24:59;11.40;;;2.65;;
37753;SDS011;23596;52.520;13.464;2023-05-07T11:27:26;2.42;;;1.60;;
37753;SDS011;23596;52.520;13.464;2023-05-07T11:29:52;5.40;;;2.42;;
37753;SDS011;23596;52.520;13.464;2023-05-07T11:32:27;6.03;;;2.13;;
37753;SDS011;23596;52.520;13.464;2023-05-07T11:34:54;4.38;;;1.92;;
37753;SDS011;23596;52.520;13.464;2023-05-07T11:37:21;6.22;;;2.22;;
37753;SDS011;23596;52.520;13.464;2023-05-07T11:39:48;5.88;;;2.30;;
37753;SDS011;23596;52.520;13.464;2023-05-07T11:42:27;7.10;;;1.98;;
37753;SDS011;23596;52.520;13.464;2023-05-07T11:44:54;3.15;;;1.90;;
37753;SDS011;23596;52.520;13.464;2023-05-07T11:47:20;5.90;;;2.40;;
37753;SDS011;23596;52.520;13.464;2023-05-07T11:49:50;3.70;;;2.00;;
37753;SDS011;23596;52.520;13.464;2023-05-07T11:52:17;2.83;;;2.00;;
37753;SDS011;23596;52.520;13.464;2023-05-07T11:57:16;7.35;;;1.88;;
37753;SDS011;23596;52.520;13.464;2023-05-07T11:59:42;3.50;;;1.50;;
37753;SDS011;23596;52.520;13.464;2023-05-07T12:02:13;7.30;;;2.15;;
37753;SDS011;23596;52.520;13.464;2023-05-07T12:04:40;3.80;;;2.15;;
37753;SDS011;23596;52.520;13.464;2023-05-07T12:07:05;5.93;;;2.30;;
37753;SDS011;23596;52.520;13.464;2023-05-07T12:09:41;7.00;;;1.70;;
37753;SDS011;23596;52.520;13.464;2023-05-07T12:12:07;6.68;;;2.00;;
37753;SDS011;23596;52.520;13.464;2023-05-07T12:14:37;4.47;;;1.87;;
37753;SDS011;23596;52.520;13.464;2023-05-07T12:17:04;4.00;;;1.88;;
37753;SDS011;23596;52.520;13.464;2023-05-07T12:19:30;4.78;;;1.90;;
37753;SDS011;23596;52.520;13.464;2023-05-07T12:21:56;6.80;;;2.47;;
37753;SDS011;23596;52.520;13.464;2023-05-07T12:24:22;4.20;;;2.27;;
37753;SDS011;23596;52.520;13.464;2023-05-07T12:26:48;2.93;;;1.87;;
37753;SDS011;23596;52.520;13.464;2023-05-07T12:29:14;5.27;;;1.97;;
37753;SDS011;23596;52.520;13.464;2023-05-07T12:31:40;3.30;;;1.80;;
37753;SDS011;23596;52.520;13.464;2023-05-07T12:36:39;4.78;;;1.63;;
37753;SDS011;23596;52.520;13.464;2023-05-07T12:39:06;3.88;;;1.50;;
37753;SDS011;23596;52.520;13.464;2023-05-07T12:41:36;2.88;;;1.55;;
37753;SDS011;23596;52.520;13.464;2023-05-07T12:44:18;3.90;;;1.60;;
37753;SDS011;23596;52.520;13.464;2023-05-07T12:46:43;4.43;;;1.80;;
37753;SDS011;23596;52.520;13.464;2023-05-07T12:49:09;6.97;;;2.17;;
37753;SDS011;23596;52.520;13.464;2023-05-07T12:51:35;2.00;;;1.30;;
37753;SDS011;23596;52.520;13.464;2023-05-07T12:54:00;4.87;;;1.77;;
37753;SDS011;23596;52.520;13.464;2023-05-07T12:56:26;7.87;;;1.63;;
37753;SDS011;23596;52.520;13.464;2023-05-07T12:58:52;3.47;;;1.50;;
37753;SDS011;23596;52.520;13.464;2023-05-07T13:01:28;2.72;;;1.60;;
37753;SDS011;23596;52.520;13.464;2023-05-07T13:03:54;5.35;;;1.67;;
37753;SDS011;23596;52.520;13.464;2023-05-07T13:06:20;4.30;;;1.53;;
37753;SDS011;23596;52.520;13.464;2023-05-07T13:08:46;3.20;;;1.20;;
37753;SDS011;23596;52.520;13.464;2023-05-07T13:11:12;5.83;;;1.60;;
37753;SDS011;23596;52.520;13.464;2023-05-07T13:13:39;5.10;;;1.85;;
37753;SDS011;23596;52.520;13.464;2023-05-07T13:16:06;5.82;;;1.75;;
37753;SDS011;23596;52.520;13.464;2023-05-07T13:18:34;5.60;;;1.83;;
37753;SDS011;23596;52.520;13.464;2023-05-07T13:21:00;2.20;;;1.60;;
37753;SDS011;23596;52.520;13.464;2023-05-07T13:23:26;4.03;;;1.77;;
37753;SDS011;23596;52.520;13.464;2023-05-07T13:25:52;6.38;;;1.88;;
37753;SDS011;23596;52.520;13.464;2023-05-07T13:28:21;3.53;;;1.85;;
37753;SDS011;23596;52.520;13.464;2023-05-07T13:30:48;5.32;;;1.45;;
37753;SDS011;23596;52.520;13.464;2023-05-07T13:33:13;2.57;;;1.80;;
37753;SDS011;23596;52.520;13.464;2023-05-07T13:35:40;6.50;;;1.92;;
37753;SDS011;23596;52.520;13.464;2023-05-07T13:38:06;5.97;;;1.97;;
37753;SDS011;23596;52.520;13.464;2023-05-07T13:40:31;4.00;;;1.60;;
37753;SDS011;23596;52.520;13.464;2023-05-07T13:42:57;4.03;;;1.50;;
37753;SDS011;23596;52.520;13.464;2023-05-07T13:45:24;2.70;;;1.40;;
37753;SDS011;23596;52.520;13.464;2023-05-07T13:47:50;7.32;;;1.90;;
37753;SDS011;23596;52.520;13.464;2023-05-07T13:50:16;2.10;;;1.30;;
37753;SDS011;23596;52.520;13.464;2023-05-07T13:52:45;3.40;;;1.80;;
37753;SDS011;23596;52.520;13.464;2023-05-07T13:55:15;5.38;;;1.73;;
37753;SDS011;23596;52.520;13.464;2023-05-07T13:57:42;3.17;;;1.67;;
37753;SDS011;23596;52.520;13.464;2023-05-07T14:00:08;10.13;;;1.70;;
37753;SDS011;23596;52.520;13.464;2023-05-07T14:02:34;4.40;;;2.00;;
37753;SDS011;23596;52.520;13.464;2023-05-07T14:05:00;3.07;;;1.93;;
37753;SDS011;23596;52.520;13.464;2023-05-07T14:07:25;2.20;;;1.30;;
37753;SDS011;23596;52.520;13.464;2023-05-07T14:09:51;1.87;;;1.43;;
37753;SDS011;23596;52.520;13.464;2023-05-07T14:12:17;3.30;;;1.37;;
37753;SDS011;23596;52.520;13.464;2023-05-07T14:14:42;7.20;;;2.00;;
37753;SDS011;23596;52.520;13.464;2023-05-07T14:17:08;6.67;;;1.67;;
37753;SDS011;23596;52.520;13.464;2023-05-07T14:19:33;5.53;;;1.70;;
37753;SDS011;23596;52.520;13.464;2023-05-07T14:21:59;5.93;;;1.60;;
37753;SDS011;23596;52.520;13.464;2023-05-07T14:24:25;7.23;;;1.73;;
37753;SDS011;23596;52.520;13.464;2023-05-07T14:26:50;1.97;;;1.50;;
37753;SDS011;23596;52.520;13.464;2023-05-07T14:29:16;4.47;;;1.57;;
37753;SDS011;23596;52.520;13.464;2023-05-07T14:31:44;6.07;;;1.85;;
37753;SDS011;23596;52.520;13.464;2023-05-07T14:36:35;5.97;;;1.73;;
37753;SDS011;23596;52.520;13.464;2023-05-07T14:39:02;7.15;;;1.63;;
37753;SDS011;23596;52.520;13.464;2023-05-07T14:41:28;4.45;;;1.60;;
37753;SDS011;23596;52.520;13.464;2023-05-07T14:43:54;3.60;;;2.00;;
37753;SDS011;23596;52.520;13.464;2023-05-07T14:46:20;3.30;;;1.35;;
37753;SDS011;23596;52.520;13.464;2023-05-07T14:48:45;5.13;;;1.60;;
37753;SDS011;23596;52.520;13.464;2023-05-07T14:51:11;5.28;;;1.30;;